This is the latest recevied weather packets stored in our database for station/object VK5GR-12. If no packets are shown the sender has not sent any weather packets the latest 10 day(s).
| Time | Temp. | Humidity | Pressure | Rain* | Wind** | Luminosity | Snow |
|---|---|---|---|---|---|---|---|
| 1777365182 | 21.67° C | 49% | 1022.8 hPa | 0 mm | - | 0 W/m² | - |
| 1777364280 | 21.67° C | 50% | 1022.7 hPa | 0 mm | - | 1 W/m² | - |
| 1777363381 | 22.78° C | 48% | 1022.5 hPa | 0 mm | - | 4 W/m² | - |
| 1777362479 | 23.33° C | 46% | 1022.3 hPa | 0 mm | - | 11 W/m² | - |
| 1777361576 | 25° C | 44% | 1022.3 hPa | 0 mm | - | 28 W/m² | - |
| 1777360675 | 26.11° C | 40% | 1022.3 hPa | 0 mm | - | 39 W/m² | - |
| 1777359770 | 27.78° C | 38% | 1022.3 hPa | 0 mm | - | 68 W/m² | - |
| 1777358868 | 26.67° C | 40% | 1022.3 hPa | 0 mm | - | 121 W/m² | - |
| 1777357966 | 26.67° C | 39% | 1022.4 hPa | 0 mm | - | 163 W/m² | - |
| 1777357063 | 26.67° C | 41% | 1022.3 hPa | 0 mm | - | 169 W/m² | - |
| 1777356160 | 27.22° C | 37% | 1022.2 hPa | 0 mm | - | 170 W/m² | - |
| 1777355257 | 25.56° C | 39% | 1022.2 hPa | 0 mm | - | 184 W/m² | - |
| 1777354356 | 25.56° C | 39% | 1022.2 hPa | 0 mm | - | 191 W/m² | - |
| 1777353453 | 26.11° C | 38% | 1022 hPa | 0 mm | - | 193 W/m² | - |
| 1777352552 | 25.56° C | 39% | 1022.2 hPa | 0 mm | - | 245 W/m² | - |
| 1777351651 | 26.11° C | 37% | 1022.2 hPa | 0 mm | - | 178 W/m² | - |
| 1777348473 | 26.67° C | 39% | 1022.6 hPa | 0 mm | - | 353 W/m² | - |
| 1777347572 | 26.67° C | 39% | 1022.6 hPa | 0 mm | - | 353 W/m² | - |
| 1777346672 | 26.11° C | 41% | 1022.8 hPa | 0 mm | - | 458 W/m² | - |
| 1777345768 | 26.11° C | 40% | 1023 hPa | 0 mm | - | 293 W/m² | - |
| 1777344865 | 26.67° C | 38% | 1023.1 hPa | 0 mm | - | 362 W/m² | - |
| 1777343961 | 26.67° C | 40% | 1023.3 hPa | 0 mm | - | 523 W/m² | - |
| 1777343060 | 26.11° C | 40% | 1023.2 hPa | 0 mm | - | 237 W/m² | - |
| 1777342156 | 25.56° C | 39% | 1023.4 hPa | 0 mm | - | 548 W/m² | - |
| 1777341256 | 25° C | 42% | 1023.5 hPa | 0 mm | - | 278 W/m² | - |
* Rain latest hour (hover to see other rain measurements)
** Current wind speed in m/s (hover to see current wind gust speed)